Time;durP1;ratioP1;P1;durP2;ratioP2;P2;SDS_P1;SDS_P2;PMS_P1;PMS_P2;Temp;Humidity;BMP_temperature;BMP_pressure;BME280_temperature;BME280_humidity;BME280_pressure;Samples;Min_cycle;Max_cycle;Signal;HPM_P1;HPM_P2
2023/11/29 00:01:33;;;;;;;14.07;7.35;;;2.60;87.50;;;;;;9178160;19;20460;-69
2023/11/29 00:04:41;;;;;;;12.38;7.05;;;2.50;87.50;;;;;;9175827;19;20356;-68
2023/11/29 00:07:49;;;;;;;10.70;7.13;;;2.50;87.50;;;;;;9177946;19;20057;-70
2023/11/29 00:10:56;;;;;;;10.23;6.70;;;2.60;87.50;;;;;;9178494;19;20015;-69
2023/11/29 00:14:02;;;;;;;9.80;6.90;;;2.60;87.60;;;;;;9174907;19;20358;-70
2023/11/29 00:17:10;;;;;;;11.88;6.90;;;2.60;87.60;;;;;;9175209;19;20029;-68
2023/11/29 00:20:16;;;;;;;8.35;6.00;;;2.60;87.70;;;;;;9176008;19;20090;-67
2023/11/29 00:23:26;;;;;;;9.65;6.13;;;2.60;87.70;;;;;;9175616;19;20026;-68
2023/11/29 00:26:32;;;;;;;10.23;6.30;;;2.60;87.70;;;;;;9176966;19;20014;-67
2023/11/29 00:29:40;;;;;;;11.38;6.57;;;2.60;87.70;;;;;;9174965;19;20760;-69
2023/11/29 00:32:45;;;;;;;10.25;6.35;;;2.60;88.40;;;;;;9174854;19;20520;-70
2023/11/29 00:35:54;;;;;;;8.43;5.90;;;2.60;87.80;;;;;;9176564;19;20010;-67
2023/11/29 00:39:02;;;;;;;10.60;6.57;;;2.60;87.80;;;;;;9176298;19;20062;-68
2023/11/29 00:42:10;;;;;;;11.05;7.03;;;2.60;88.40;;;;;;9176590;19;20018;-70
2023/11/29 00:45:15;;;;;;;9.88;7.28;;;2.70;87.90;;;;;;9167907;19;20345;-69
2023/11/29 00:48:23;;;;;;;13.02;7.43;;;2.70;87.90;;;;;;9174478;19;20499;-67
2023/11/29 00:51:29;;;;;;;10.30;7.78;;;2.70;88.00;;;;;;9174275;19;20014;-69
2023/11/29 00:54:39;;;;;;;12.23;7.50;;;2.70;87.90;;;;;;9175398;19;20014;-68
2023/11/29 00:57:44;;;;;;;11.73;7.80;;;2.70;87.90;;;;;;9174812;19;20039;-68
2023/11/29 01:00:52;;;;;;;11.52;7.50;;;2.70;87.90;;;;;;9174025;19;20049;-69
2023/11/29 01:04:00;;;;;;;15.95;8.05;;;2.70;87.90;;;;;;9171078;19;20064;-68
2023/11/29 01:07:08;;;;;;;12.95;7.97;;;2.70;87.90;;;;;;9169635;19;20736;-68
2023/11/29 01:10:16;;;;;;;10.77;7.63;;;2.70;88.00;;;;;;9175473;19;20014;-68
2023/11/29 01:13:24;;;;;;;12.13;7.75;;;2.70;88.00;;;;;;9172661;19;20488;-67
2023/11/29 01:16:30;;;;;;;12.82;8.43;;;2.70;88.00;;;;;;9173842;19;20010;-68
2023/11/29 01:19:37;;;;;;;13.40;9.30;;;2.80;88.00;;;;;;9170713;19;20911;-68
2023/11/29 01:22:44;;;;;;;16.25;9.48;;;2.80;88.00;;;;;;9170913;19;20052;-68
2023/11/29 01:25:54;;;;;;;16.17;9.88;;;2.80;88.00;;;;;;9170230;19;20483;-71
2023/11/29 01:29:00;;;;;;;14.85;9.32;;;2.80;88.00;;;;;;9168866;19;20542;-69
2023/11/29 01:32:09;;;;;;;14.20;9.15;;;2.80;88.10;;;;;;9172622;19;20019;-69
2023/11/29 01:35:14;;;;;;;12.88;8.77;;;2.80;88.00;;;;;;9173803;19;20889;-72
2023/11/29 01:38:22;;;;;;;12.23;8.65;;;2.80;88.10;;;;;;9173382;19;20018;-70
2023/11/29 01:41:31;;;;;;;12.63;8.32;;;2.80;88.00;;;;;;9170691;19;20015;-68
2023/11/29 01:44:39;;;;;;;11.13;7.60;;;2.80;88.00;;;;;;9168281;19;20471;-69
2023/11/29 01:47:45;;;;;;;10.63;7.07;;;2.80;88.00;;;;;;9172404;19;20015;-72
2023/11/29 01:50:55;;;;;;;8.15;6.18;;;2.80;88.00;;;;;;9172679;19;20017;-70
2023/11/29 01:54:02;;;;;;;10.55;7.07;;;2.80;87.90;;;;;;9170739;19;20018;-70
2023/11/29 01:57:13;;;;;;;11.60;7.38;;;2.80;87.90;;;;;;9172728;19;20006;-70
2023/11/29 02:00:19;;;;;;;9.50;6.25;;;2.80;87.90;;;;;;9170184;19;20021;-68
2023/11/29 02:03:33;;;;;;;11.25;7.07;;;2.70;87.80;;;;;;9171418;19;20014;-69
2023/11/29 02:06:39;;;;;;;9.57;6.45;;;2.70;87.70;;;;;;9169849;19;20073;-70
2023/11/29 02:09:48;;;;;;;12.77;7.85;;;2.70;87.80;;;;;;9170228;19;20472;-66
2023/11/29 02:12:56;;;;;;;11.10;7.07;;;2.70;87.70;;;;;;9171996;19;20025;-67
2023/11/29 02:16:03;;;;;;;13.15;7.82;;;2.60;87.80;;;;;;9173214;19;20015;-67
2023/11/29 02:19:09;;;;;;;12.25;7.82;;;2.60;87.80;;;;;;9167740;19;20015;-69
2023/11/29 02:22:19;;;;;;;9.50;7.00;;;2.60;87.80;;;;;;9168525;19;20018;-69
2023/11/29 02:25:27;;;;;;;9.60;7.28;;;2.60;87.80;;;;;;9169789;19;20018;-68
2023/11/29 02:28:36;;;;;;;14.65;7.22;;;2.60;87.90;;;;;;9170501;19;20021;-69
2023/11/29 02:31:41;;;;;;;13.00;7.82;;;2.60;87.90;;;;;;9168506;19;20048;-66
2023/11/29 02:34:49;;;;;;;11.60;8.05;;;2.50;87.80;;;;;;9169813;19;20364;-65
2023/11/29 02:37:54;;;;;;;13.13;8.77;;;2.50;87.80;;;;;;9171563;19;20494;-68
2023/11/29 02:41:04;;;;;;;12.65;8.20;;;2.50;87.80;;;;;;9174363;19;20014;-68
2023/11/29 02:44:10;;;;;;;14.40;8.55;;;2.50;87.80;;;;;;9175954;19;20053;-72
2023/11/29 02:47:18;;;;;;;14.30;9.13;;;2.50;87.90;;;;;;9178980;19;20010;-68
2023/11/29 02:50:23;;;;;;;14.10;9.30;;;2.50;87.90;;;;;;9179961;19;20101;-67
2023/11/29 02:53:32;;;;;;;14.07;8.95;;;2.40;87.90;;;;;;9180412;19;20037;-68
2023/11/29 02:56:40;;;;;;;12.73;8.48;;;2.40;88.00;;;;;;9179585;19;20376;-68
2023/11/29 02:59:48;;;;;;;15.10;9.18;;;2.40;88.00;;;;;;9177979;19;20517;-67
2023/11/29 03:02:55;;;;;;;13.18;8.70;;;2.40;88.00;;;;;;9178920;19;20021;-69
2023/11/29 03:06:02;;;;;;;13.73;8.75;;;2.40;88.00;;;;;;9176711;19;20078;-69
2023/11/29 03:09:08;;;;;;;11.52;8.57;;;2.50;88.10;;;;;;9179241;19;20044;-67
2023/11/29 03:12:19;;;;;;;14.15;9.35;;;2.50;88.10;;;;;;9181361;19;20033;-67
2023/11/29 03:15:24;;;;;;;14.40;8.73;;;2.50;88.10;;;;;;9176641;19;20021;-67
2023/11/29 03:18:32;;;;;;;13.82;8.38;;;2.50;88.10;;;;;;9177293;19;20493;-68
2023/11/29 03:21:37;;;;;;;16.13;9.50;;;2.40;88.10;;;;;;9174213;19;20090;-67
2023/11/29 03:24:47;;;;;;;11.23;7.97;;;2.50;88.20;;;;;;9176595;19;20014;-69
2023/11/29 03:27:56;;;;;;;10.50;7.82;;;2.50;88.20;;;;;;9175342;19;20407;-68
2023/11/29 03:31:03;;;;;;;13.07;8.90;;;2.50;88.20;;;;;;9174672;19;20010;-69
2023/11/29 03:34:09;;;;;;;12.70;7.82;;;2.50;88.20;;;;;;9176741;19;20077;-68
2023/11/29 03:37:16;;;;;;;13.63;7.95;;;2.50;88.20;;;;;;9175983;19;20488;-68
2023/11/29 03:40:22;;;;;;;10.15;6.90;;;2.40;88.10;;;;;;9176397;19;20049;-68
2023/11/29 03:43:32;;;;;;;10.13;7.60;;;2.50;88.20;;;;;;9174336;19;20043;-72
2023/11/29 03:46:38;;;;;;;14.15;7.35;;;2.40;88.20;;;;;;9172320;19;20360;-73
2023/11/29 03:49:46;;;;;;;12.75;7.55;;;2.50;88.30;;;;;;9176636;19;20024;-72
2023/11/29 03:52:51;;;;;;;11.05;7.32;;;2.50;88.30;;;;;;9176473;19;20470;-72
2023/11/29 03:55:59;;;;;;;11.23;8.23;;;2.50;88.40;;;;;;9177552;19;20026;-73
2023/11/29 03:59:07;;;;;;;9.77;7.32;;;2.50;88.40;;;;;;9178076;19;20471;-71
2023/11/29 04:02:14;;;;;;;10.63;6.63;;;2.50;88.40;;;;;;9175011;19;20022;-72
2023/11/29 04:05:20;;;;;;;10.75;7.15;;;2.50;88.40;;;;;;9175944;19;20081;-69
2023/11/29 04:08:28;;;;;;;10.18;7.10;;;2.60;88.50;;;;;;9174244;19;20368;-71
2023/11/29 04:11:34;;;;;;;8.02;5.40;;;2.50;88.50;;;;;;9177485;19;20364;-72
2023/11/29 04:14:44;;;;;;;7.10;5.47;;;2.60;88.50;;;;;;9176779;19;20389;-71
2023/11/29 04:17:50;;;;;;;7.93;5.68;;;2.60;88.50;;;;;;9173808;19;20031;-73
2023/11/29 04:21:00;;;;;;;9.50;6.05;;;2.50;88.50;;;;;;9173078;19;20034;-72
2023/11/29 04:24:06;;;;;;;9.80;6.57;;;2.60;88.60;;;;;;9176540;19;20022;-69
2023/11/29 04:27:14;;;;;;;8.00;6.30;;;2.60;88.60;;;;;;9173578;19;20014;-70
2023/11/29 04:30:23;;;;;;;9.02;6.15;;;2.60;88.50;;;;;;9172338;19;20057;-72
2023/11/29 04:33:33;;;;;;;7.53;5.38;;;2.60;88.50;;;;;;9175690;19;20025;-71
2023/11/29 04:36:40;;;;;;;6.70;5.20;;;2.60;88.60;;;;;;9175014;19;20022;-72
2023/11/29 04:39:48;;;;;;;5.65;4.97;;;2.60;88.60;;;;;;9172846;19;20610;-72
2023/11/29 04:42:54;;;;;;;6.85;5.20;;;2.60;88.60;;;;;;9171314;19;20392;-72
2023/11/29 04:46:04;;;;;;;7.07;5.10;;;2.60;88.60;;;;;;9175945;19;20018;-71
2023/11/29 04:49:09;;;;;;;5.97;4.65;;;2.60;88.50;;;;;;9173132;19;20102;-70
2023/11/29 04:52:17;;;;;;;6.93;5.38;;;2.60;88.50;;;;;;9173258;19;20485;-70
2023/11/29 04:55:22;;;;;;;7.47;6.05;;;2.70;88.60;;;;;;9176072;19;20010;-71
2023/11/29 04:58:30;;;;;;;8.10;5.78;;;2.70;88.60;;;;;;9175533;19;20025;-71
2023/11/29 05:01:38;;;;;;;8.70;6.50;;;2.70;88.60;;;;;;9173010;19;20011;-72
2023/11/29 05:04:46;;;;;;;9.55;6.70;;;2.70;88.60;;;;;;9169390;19;20018;-72
2023/11/29 05:07:53;;;;;;;11.77;7.80;;;2.70;88.60;;;;;;9166555;19;20038;-71
2023/11/29 05:11:01;;;;;;;9.43;6.40;;;2.70;88.70;;;;;;9169694;19;20028;-73
2023/11/29 05:14:06;;;;;;;12.48;7.85;;;2.70;88.70;;;;;;9170837;19;20023;-71
2023/11/29 05:17:17;;;;;;;9.52;7.00;;;2.70;88.60;;;;;;9172864;19;20771;-71
2023/11/29 05:20:22;;;;;;;10.68;7.53;;;2.70;88.60;;;;;;9170444;19;20019;-71
2023/11/29 05:23:30;;;;;;;12.85;7.07;;;2.70;88.60;;;;;;9172075;19;20025;-71
2023/11/29 05:26:35;;;;;;;10.35;7.10;;;2.70;88.60;;;;;;9171023;19;20065;-71
2023/11/29 05:29:43;;;;;;;15.77;8.02;;;2.70;88.60;;;;;;9170352;19;20018;-71
2023/11/29 05:32:51;;;;;;;23.42;8.10;;;2.70;88.70;;;;;;9170924;19;20014;-72
2023/11/29 05:35:59;;;;;;;13.10;8.50;;;2.70;88.70;;;;;;9168404;19;20018;-72
2023/11/29 05:39:08;;;;;;;11.00;7.68;;;2.70;88.60;;;;;;9168183;19;20019;-72
2023/11/29 05:42:15;;;;;;;13.98;8.57;;;2.70;88.70;;;;;;9169426;19;20011;-71
2023/11/29 05:45:21;;;;;;;12.30;8.40;;;2.70;88.70;;;;;;9165735;19;20019;-72
2023/11/29 05:48:31;;;;;;;13.95;9.23;;;2.70;88.70;;;;;;9168944;19;20480;-71
2023/11/29 05:51:37;;;;;;;20.95;7.63;;;2.80;88.80;;;;;;9170565;19;20022;-71
2023/11/29 05:54:44;;;;;;;16.83;8.98;;;2.80;88.80;;;;;;9167311;19;20014;-71
2023/11/29 05:57:50;;;;;;;12.65;8.57;;;2.80;88.90;;;;;;9169400;19;20025;-73
2023/11/29 06:00:57;;;;;;;14.80;8.57;;;2.80;88.90;;;;;;9168277;19;20015;-72
2023/11/29 06:04:06;;;;;;;15.38;8.95;;;2.80;88.90;;;;;;9169423;19;20007;-74
2023/11/29 06:07:15;;;;;;;14.27;8.93;;;2.80;88.90;;;;;;9166360;19;20504;-71
2023/11/29 06:10:21;;;;;;;14.40;8.32;;;2.80;88.90;;;;;;9165983;19;20465;-72
2023/11/29 06:13:28;;;;;;;14.07;7.90;;;2.80;88.90;;;;;;9164569;19;20015;-72
2023/11/29 06:16:34;;;;;;;10.57;8.00;;;2.80;88.90;;;;;;9170893;19;20078;-72
2023/11/29 06:19:44;;;;;;;10.98;7.53;;;2.80;88.90;;;;;;9177360;19;21220;-72
2023/11/29 06:22:50;;;;;;;13.02;8.00;;;2.90;88.90;;;;;;9176303;19;20022;-74
2023/11/29 06:25:57;;;;;;;13.65;7.50;;;2.90;89.00;;;;;;9179092;19;20029;-72
2023/11/29 06:29:04;;;;;;;12.07;7.35;;;2.90;89.00;;;;;;9177306;19;20025;-72
2023/11/29 06:32:11;;;;;;;13.68;7.85;;;2.90;89.00;;;;;;9178739;19;20011;-72
2023/11/29 06:35:20;;;;;;;14.70;6.97;;;2.90;89.00;;;;;;9177863;19;20048;-72
2023/11/29 06:38:27;;;;;;;14.77;7.30;;;2.90;89.00;;;;;;9178386;19;20428;-73
2023/11/29 06:41:33;;;;;;;14.40;6.47;;;2.90;89.00;;;;;;9178076;19;20022;-73
2023/11/29 06:44:40;;;;;;;11.13;6.30;;;2.90;89.00;;;;;;9172877;19;20033;-72
2023/11/29 06:47:46;;;;;;;9.77;5.72;;;2.90;89.00;;;;;;9178330;19;20019;-72
2023/11/29 06:50:57;;;;;;;11.38;6.28;;;3.00;89.70;;;;;;9176665;19;20014;-72
2023/11/29 06:54:04;;;;;;;11.60;5.53;;;2.90;89.10;;;;;;9178733;19;20025;-73
2023/11/29 06:57:11;;;;;;;14.75;5.60;;;3.00;89.10;;;;;;9176495;19;20013;-72
2023/11/29 07:00:18;;;;;;;16.13;5.25;;;3.00;89.10;;;;;;9174823;19;20018;-72
2023/11/29 07:03:26;;;;;;;9.90;4.57;;;3.00;89.10;;;;;;9175961;19;20010;-73
2023/11/29 07:06:34;;;;;;;11.32;4.07;;;3.00;89.20;;;;;;9172716;19;21331;-72
2023/11/29 07:09:42;;;;;;;7.30;4.40;;;3.00;89.20;;;;;;9175572;19;20021;-72
2023/11/29 07:12:48;;;;;;;6.72;3.90;;;3.00;89.20;;;;;;9177438;19;20015;-72
2023/11/29 07:15:56;;;;;;;12.20;3.85;;;3.10;89.30;;;;;;9178540;19;20793;-69
2023/11/29 07:19:03;;;;;;;5.55;3.75;;;3.10;89.30;;;;;;9172044;19;20015;-71
2023/11/29 07:22:14;;;;;;;10.70;3.80;;;3.10;89.30;;;;;;9177280;19;20136;-73
2023/11/29 07:25:20;;;;;;;8.52;2.63;;;3.10;89.40;;;;;;9177574;19;20017;-71
2023/11/29 07:28:29;;;;;;;11.52;3.00;;;3.20;89.30;;;;;;9169388;19;20014;-69
2023/11/29 07:31:34;;;;;;;4.85;2.58;;;3.20;89.40;;;;;;9175859;19;20022;-70
2023/11/29 07:34:46;;;;;;;6.95;2.78;;;3.20;89.30;;;;;;9174711;19;20014;-69
2023/11/29 07:37:54;;;;;;;6.65;2.22;;;3.20;89.30;;;;;;9172249;19;20101;-70
2023/11/29 07:41:03;;;;;;;8.55;2.75;;;3.30;89.40;;;;;;9165192;19;20361;-71
2023/11/29 07:44:09;;;;;;;7.15;2.33;;;3.30;89.40;;;;;;9165106;19;20477;-71
2023/11/29 07:47:17;;;;;;;5.40;2.35;;;3.30;89.40;;;;;;9172359;19;20014;-72
2023/11/29 07:50:22;;;;;;;12.82;2.63;;;3.30;89.40;;;;;;9170782;19;20046;-69
2023/11/29 07:53:33;;;;;;;11.43;3.00;;;3.30;89.30;;;;;;9174085;19;20015;-71
2023/11/29 07:56:39;;;;;;;7.10;3.05;;;3.30;89.40;;;;;;9175357;19;20519;-72
2023/11/29 07:59:47;;;;;;;3.10;2.35;;;3.30;89.30;;;;;;9175120;19;20026;-72
2023/11/29 08:02:53;;;;;;;4.60;2.78;;;3.40;89.40;;;;;;9173479;19;20025;-71
2023/11/29 08:06:00;;;;;;;8.20;3.03;;;3.40;89.40;;;;;;9175500;19;20022;-72
2023/11/29 08:09:08;;;;;;;6.10;2.92;;;3.40;89.40;;;;;;9171725;19;20025;-71
2023/11/29 08:12:17;;;;;;;5.82;3.60;;;3.40;89.40;;;;;;9172976;19;20028;-73
2023/11/29 08:15:22;;;;;;;11.95;3.08;;;3.40;89.40;;;;;;9176286;19;20431;-69
2023/11/29 08:18:30;;;;;;;10.85;3.92;;;3.50;89.40;;;;;;9175344;19;20029;-71
2023/11/29 08:21:36;;;;;;;6.38;3.28;;;3.50;89.40;;;;;;9173857;19;20014;-71
2023/11/29 08:24:47;;;;;;;9.75;3.58;;;3.50;89.40;;;;;;9174525;19;20510;-73
2023/11/29 08:27:52;;;;;;;5.35;3.33;;;3.50;89.40;;;;;;9174238;19;20014;-73
2023/11/29 08:31:00;;;;;;;8.32;4.82;;;3.50;89.40;;;;;;9173446;19;20476;-74
2023/11/29 08:34:06;;;;;;;11.77;3.90;;;3.50;89.50;;;;;;9172694;19;20510;-72
2023/11/29 08:37:14;;;;;;;12.20;3.78;;;3.50;89.40;;;;;;9174752;19;20018;-73
2023/11/29 08:40:22;;;;;;;9.57;4.07;;;3.50;89.40;;;;;;9173287;19;20025;-75
2023/11/29 08:43:30;;;;;;;9.60;4.35;;;3.50;89.40;;;;;;9169616;19;20029;-73
2023/11/29 08:46:35;;;;;;;6.22;3.53;;;3.50;89.40;;;;;;9173992;19;20637;-73
2023/11/29 08:49:43;;;;;;;9.02;4.03;;;3.50;89.40;;;;;;9170634;19;20026;-72
2023/11/29 08:52:50;;;;;;;9.85;4.57;;;3.60;89.40;;;;;;9172282;19;20026;-72
2023/11/29 08:56:00;;;;;;;7.63;4.55;;;3.50;89.40;;;;;;9173608;19;20571;-71
2023/11/29 08:59:06;;;;;;;10.38;4.80;;;3.50;89.40;;;;;;9173037;19;20693;-73
2023/11/29 09:02:14;;;;;;;11.27;4.35;;;3.50;89.40;;;;;;9171839;19;20014;-72
2023/11/29 09:05:22;;;;;;;9.82;4.50;;;3.50;89.40;;;;;;9170432;19;20026;-71
2023/11/29 09:08:31;;;;;;;9.15;4.20;;;3.50;89.40;;;;;;9169882;19;20025;-69
2023/11/29 09:11:39;;;;;;;5.82;4.22;;;3.50;89.40;;;;;;9170630;19;20477;-71
2023/11/29 09:14:48;;;;;;;10.68;4.30;;;3.60;89.50;;;;;;9172702;19;20026;-70
2023/11/29 09:17:54;;;;;;;6.45;3.88;;;3.50;89.40;;;;;;9167057;19;20519;-72
2023/11/29 09:21:02;;;;;;;9.05;4.15;;;3.50;89.40;;;;;;9170159;19;20018;-71
2023/11/29 09:24:09;;;;;;;8.07;4.20;;;3.50;89.40;;;;;;9170346;19;20019;-71
2023/11/29 09:27:19;;;;;;;7.13;4.30;;;3.50;89.30;;;;;;9168826;19;20078;-70
2023/11/29 09:30:26;;;;;;;5.68;3.90;;;3.50;89.30;;;;;;9170156;19;20022;-71
2023/11/29 09:33:33;;;;;;;6.60;3.72;;;3.50;89.30;;;;;;9173043;19;20030;-70
2023/11/29 09:36:39;;;;;;;12.07;4.05;;;3.50;89.30;;;;;;9170320;19;20018;-71
2023/11/29 09:39:48;;;;;;;7.88;3.95;;;3.50;89.30;;;;;;9165344;19;20030;-71
2023/11/29 09:42:57;;;;;;;8.93;4.05;;;3.60;89.30;;;;;;9165280;19;20022;-71
2023/11/29 09:46:04;;;;;;;7.28;3.40;;;3.60;89.20;;;;;;9170276;19;20010;-71
2023/11/29 09:49:10;;;;;;;5.78;3.40;;;3.60;89.30;;;;;;9170265;19;20511;-71
2023/11/29 09:52:18;;;;;;;5.78;3.65;;;3.60;89.30;;;;;;9170395;19;20330;-70
2023/11/29 09:55:23;;;;;;;13.38;4.00;;;3.60;89.30;;;;;;9168174;19;20033;-74
2023/11/29 09:58:33;;;;;;;7.18;3.67;;;3.60;89.30;;;;;;9171215;19;20058;-71
2023/11/29 10:01:39;;;;;;;12.98;4.20;;;3.60;89.30;;;;;;9167733;19;20010;-72
2023/11/29 10:04:48;;;;;;;5.03;3.58;;;3.70;89.50;;;;;;9170174;19;20014;-70
2023/11/29 10:07:54;;;;;;;9.35;3.80;;;3.70;89.50;;;;;;9169922;19;20030;-72
2023/11/29 10:11:02;;;;;;;5.20;3.30;;;3.80;89.50;;;;;;9167442;19;20022;-73
2023/11/29 10:14:10;;;;;;;9.32;3.63;;;3.80;89.50;;;;;;9170793;19;20010;-71
2023/11/29 10:17:18;;;;;;;8.98;4.10;;;3.90;89.60;;;;;;9169398;19;20380;-71
2023/11/29 10:20:29;;;;;;;7.43;3.50;;;4.00;89.50;;;;;;9168738;19;20031;-71
2023/11/29 10:23:37;;;;;;;5.70;3.57;;;4.00;89.50;;;;;;9170102;19;20022;-73
2023/11/29 10:26:42;;;;;;;6.43;3.17;;;4.00;89.40;;;;;;9166789;19;20024;-71
2023/11/29 10:29:52;;;;;;;11.40;3.10;;;4.10;89.40;;;;;;9165936;19;20506;-70
2023/11/29 10:32:59;;;;;;;6.88;3.17;;;4.10;89.30;;;;;;9162179;19;20021;-71
2023/11/29 10:36:09;;;;;;;6.35;3.30;;;4.20;89.40;;;;;;9169088;19;20022;-69
2023/11/29 10:39:21;;;;;;;5.10;2.97;;;4.20;89.20;;;;;;9166480;19;20011;-69
2023/11/29 10:42:28;;;;;;;6.05;2.80;;;4.20;89.10;;;;;;9169078;19;20382;-70
2023/11/29 10:45:40;;;;;;;10.35;4.20;;;4.20;89.10;;;;;;9163218;19;20010;-72
2023/11/29 10:48:53;;;;;;;10.50;3.92;;;4.20;89.00;;;;;;9164335;19;20018;-69
2023/11/29 10:52:01;;;;;;;4.65;2.75;;;4.20;89.00;;;;;;9166926;19;20051;-71
2023/11/29 10:55:10;;;;;;;7.03;3.22;;;4.20;88.90;;;;;;9169655;19;20029;-70
2023/11/29 10:58:22;;;;;;;4.10;2.40;;;4.20;88.80;;;;;;9167245;19;20030;-70
2023/11/29 11:01:37;;;;;;;6.53;2.47;;;4.20;88.80;;;;;;9169744;19;20022;-70
2023/11/29 11:04:47;;;;;;;4.93;2.78;;;4.20;88.80;;;;;;9173222;19;20010;-70
2023/11/29 11:07:55;;;;;;;5.85;2.50;;;4.20;88.90;;;;;;9176331;19;20014;-71
2023/11/29 11:11:00;;;;;;;5.50;3.03;;;4.20;88.70;;;;;;9174164;19;20022;-71
2023/11/29 11:14:12;;;;;;;5.95;2.95;;;4.20;88.60;;;;;;9175912;19;20010;-70
2023/11/29 11:17:22;;;;;;;3.97;2.80;;;4.20;88.60;;;;;;9175241;19;20051;-72
2023/11/29 11:20:41;;;;;;;7.23;3.47;;;4.20;88.50;;;;;;9178060;19;20025;-70
2023/11/29 11:23:47;;;;;;;5.18;2.90;;;4.20;88.40;;;;;;9175927;19;20033;-70
2023/11/29 11:27:09;;;;;;;6.43;3.17;;;4.20;88.40;;;;;;9175701;19;20018;-72
2023/11/29 11:30:35;;;;;;;6.00;3.35;;;4.20;88.40;;;;;;9174002;19;20028;-71
2023/11/29 11:34:13;;;;;;;6.60;2.53;;;4.20;88.30;;;;;;9167786;19;20368;-71
2023/11/29 11:37:22;;;;;;;5.07;2.38;;;4.20;88.30;;;;;;9168646;19;20348;-70
2023/11/29 11:40:30;;;;;;;4.90;2.65;;;4.20;88.40;;;;;;9169200;19;20495;-70
2023/11/29 11:43:36;;;;;;;5.10;2.45;;;4.20;88.30;;;;;;9168181;19;20018;-70
2023/11/29 11:46:43;;;;;;;10.80;2.97;;;4.20;88.30;;;;;;9170054;19;20014;-72
2023/11/29 11:49:49;;;;;;;5.28;2.53;;;4.20;88.30;;;;;;9169345;19;20015;-71
2023/11/29 11:53:03;;;;;;;3.28;2.20;;;4.20;88.30;;;;;;9170907;19;20017;-70
2023/11/29 11:56:19;;;;;;;8.38;2.35;;;4.20;88.30;;;;;;9171343;19;20653;-69
2023/11/29 11:59:27;;;;;;;4.38;1.85;;;4.20;88.20;;;;;;9166279;19;20011;-69
2023/11/29 12:02:32;;;;;;;7.18;2.60;;;4.20;88.20;;;;;;9167129;19;20019;-72
2023/11/29 12:05:41;;;;;;;6.10;2.30;;;4.20;88.10;;;;;;9169209;19;20018;-71
2023/11/29 12:08:50;;;;;;;7.47;2.35;;;4.20;88.10;;;;;;9169639;19;20027;-71
2023/11/29 12:12:09;;;;;;;4.78;2.50;;;4.20;88.10;;;;;;9165163;19;20014;-70
2023/11/29 12:15:16;;;;;;;6.60;1.80;;;4.20;88.10;;;;;;9167572;19;20099;-71
2023/11/29 12:18:26;;;;;;;8.32;2.78;;;4.20;88.10;;;;;;9168162;19;20006;-69
2023/11/29 12:21:32;;;;;;;8.60;2.33;;;4.20;88.00;;;;;;9167082;19;20013;-71
2023/11/29 12:24:44;;;;;;;4.97;2.33;;;4.30;88.10;;;;;;9168304;19;20270;-71
2023/11/29 12:27:53;;;;;;;5.23;1.90;;;4.30;88.10;;;;;;9172184;19;20571;-71
2023/11/29 12:31:02;;;;;;;5.43;2.03;;;4.30;88.00;;;;;;9028117;19;2762716;-69
2023/11/29 12:34:07;;;;;;;4.63;2.45;;;4.30;88.10;;;;;;9172522;19;20015;-69
2023/11/29 12:37:15;;;;;;;3.58;2.22;;;4.30;88.00;;;;;;9173498;19;20019;-70
2023/11/29 12:40:25;;;;;;;6.32;2.33;;;4.30;88.00;;;;;;9172933;19;20020;-70
2023/11/29 12:43:32;;;;;;;7.25;2.30;;;4.30;87.90;;;;;;9169075;19;20152;-70
2023/11/29 12:46:38;;;;;;;3.75;1.80;;;4.30;87.90;;;;;;9169016;19;20041;-70
2023/11/29 12:49:45;;;;;;;9.93;2.20;;;4.40;87.90;;;;;;9168738;19;20026;-70
2023/11/29 12:52:51;;;;;;;5.25;2.03;;;4.40;87.90;;;;;;9167519;19;20476;-70
2023/11/29 12:56:01;;;;;;;6.18;2.30;;;4.40;87.90;;;;;;9169164;19;20025;-70
2023/11/29 12:59:07;;;;;;;9.90;2.45;;;4.40;87.90;;;;;;9169199;19;20022;-71
2023/11/29 13:02:14;;;;;;;6.55;2.30;;;4.40;87.80;;;;;;9172420;19;20612;-71
2023/11/29 13:05:20;;;;;;;8.55;2.03;;;4.40;87.80;;;;;;9171899;19;20348;-71
2023/11/29 13:08:27;;;;;;;3.65;1.90;;;4.50;87.80;;;;;;9172254;19;20014;-73
2023/11/29 13:11:36;;;;;;;5.78;1.88;;;4.50;87.70;;;;;;9170327;19;20025;-71
2023/11/29 13:14:44;;;;;;;12.57;2.10;;;4.50;87.70;;;;;;9173026;19;20464;-71
2023/11/29 13:17:49;;;;;;;5.10;2.30;;;4.50;87.70;;;;;;9172970;19;20082;-72
2023/11/29 13:20:57;;;;;;;6.82;1.75;;;4.50;87.60;;;;;;9173453;19;20021;-72
2023/11/29 13:24:02;;;;;;;7.22;2.38;;;4.50;87.60;;;;;;9171190;19;20022;-71
2023/11/29 13:27:15;;;;;;;5.53;1.95;;;4.60;87.70;;;;;;9170228;19;20021;-72
2023/11/29 13:30:21;;;;;;;5.88;1.98;;;4.60;87.70;;;;;;9170350;19;20026;-72
2023/11/29 13:33:29;;;;;;;4.43;1.85;;;4.60;87.80;;;;;;9169287;19;20033;-72
2023/11/29 13:36:35;;;;;;;7.53;2.58;;;4.70;87.70;;;;;;9170429;19;20807;-72
2023/11/29 13:39:43;;;;;;;4.68;1.77;;;4.70;87.70;;;;;;9171358;19;20022;-72
2023/11/29 13:42:51;;;;;;;8.75;1.90;;;4.70;87.60;;;;;;9166283;19;20413;-72
2023/11/29 13:45:59;;;;;;;5.35;1.95;;;4.80;87.50;;;;;;9168838;19;20015;-72
2023/11/29 13:49:05;;;;;;;2.60;1.33;;;4.80;87.50;;;;;;9168690;19;20066;-72
2023/11/29 13:52:13;;;;;;;6.15;1.92;;;4.80;87.40;;;;;;9168813;19;20038;-72
2023/11/29 13:55:28;;;;;;;4.63;1.98;;;4.80;87.30;;;;;;9169464;19;20015;-72
2023/11/29 13:58:38;;;;;;;7.65;2.53;;;4.80;87.40;;;;;;9170945;19;20015;-71
2023/11/29 14:01:44;;;;;;;4.20;1.90;;;4.90;87.40;;;;;;9169541;19;20018;-72
2023/11/29 14:04:51;;;;;;;6.38;1.80;;;4.90;87.30;;;;;;9169686;19;20542;-71
2023/11/29 14:07:57;;;;;;;8.32;2.03;;;4.90;87.30;;;;;;9168638;19;20018;-72
2023/11/29 14:11:05;;;;;;;6.20;1.90;;;4.90;87.20;;;;;;9169731;19;20034;-72
2023/11/29 14:14:18;;;;;;;5.63;2.15;;;4.90;87.10;;;;;;9169084;19;20044;-70
2023/11/29 14:17:26;;;;;;;5.75;1.73;;;4.80;87.10;;;;;;9169855;19;20030;-69
2023/11/29 14:20:32;;;;;;;2.97;1.98;;;4.90;87.00;;;;;;9169451;19;20014;-69
2023/11/29 14:23:39;;;;;;;7.53;1.73;;;4.90;87.10;;;;;;9167292;19;20831;-71
2023/11/29 14:26:45;;;;;;;3.53;1.58;;;4.90;86.90;;;;;;9169076;19;20044;-69
2023/11/29 14:29:55;;;;;;;5.22;1.80;;;4.80;86.80;;;;;;9169194;19;20018;-69
2023/11/29 14:33:01;;;;;;;4.85;1.92;;;4.80;86.80;;;;;;9166191;19;20130;-69
2023/11/29 14:36:08;;;;;;;7.35;2.78;;;4.80;86.80;;;;;;9169741;19;20018;-70
2023/11/29 14:39:15;;;;;;;5.18;1.63;;;4.70;86.90;;;;;;9178359;19;20896;-69
2023/11/29 14:42:22;;;;;;;2.60;1.92;;;4.70;86.80;;;;;;9177818;19;20018;-69
2023/11/29 14:45:30;;;;;;;8.77;3.42;;;4.70;86.90;;;;;;9173884;19;20022;-72
2023/11/29 14:48:38;;;;;;;6.30;2.38;;;4.60;86.90;;;;;;9178336;19;20601;-70
2023/11/29 14:51:46;;;;;;;4.57;2.30;;;4.60;87.00;;;;;;9176077;19;20015;-69
2023/11/29 14:54:54;;;;;;;8.57;2.42;;;4.60;87.00;;;;;;9178444;19;20495;-70
2023/11/29 14:57:59;;;;;;;9.07;2.50;;;4.50;87.00;;;;;;9179143;19;20615;-70
2023/11/29 15:01:10;;;;;;;9.88;3.85;;;4.50;87.10;;;;;;9178015;19;20018;-70
2023/11/29 15:04:18;;;;;;;8.35;4.13;;;4.50;87.10;;;;;;9178729;19;20490;-69
2023/11/29 15:07:26;;;;;;;8.10;3.50;;;4.50;87.20;;;;;;9176837;19;20025;-70
2023/11/29 15:10:31;;;;;;;6.18;2.63;;;4.50;87.20;;;;;;9178545;19;20014;-70
2023/11/29 15:13:39;;;;;;;15.20;5.15;;;4.40;87.10;;;;;;9176347;19;20021;-69
2023/11/29 15:16:49;;;;;;;7.53;3.40;;;4.40;87.10;;;;;;9178097;19;20019;-69
2023/11/29 15:19:56;;;;;;;3.78;2.90;;;4.40;87.20;;;;;;9178790;19;20018;-68
2023/11/29 15:23:02;;;;;;;8.23;2.92;;;4.30;87.10;;;;;;9178543;19;20351;-67
2023/11/29 15:26:10;;;;;;;6.57;3.63;;;4.30;87.10;;;;;;9175416;19;20018;-68
2023/11/29 15:29:15;;;;;;;4.90;2.63;;;4.30;87.20;;;;;;9177885;19;20011;-67
2023/11/29 15:32:25;;;;;;;4.13;2.40;;;4.30;87.20;;;;;;9174781;19;20015;-68
2023/11/29 15:35:31;;;;;;;6.00;2.95;;;4.20;87.10;;;;;;9176873;19;20369;-68
2023/11/29 15:38:41;;;;;;;6.78;3.53;;;4.20;87.10;;;;;;9177452;19;20030;-68
2023/11/29 15:41:46;;;;;;;5.90;3.20;;;4.10;87.10;;;;;;9177432;19;20018;-67
2023/11/29 15:44:54;;;;;;;5.63;3.13;;;4.10;87.10;;;;;;9173450;19;20026;-68
2023/11/29 15:48:02;;;;;;;6.03;3.28;;;4.10;87.10;;;;;;9175510;19;20019;-68
2023/11/29 15:51:10;;;;;;;6.05;3.00;;;4.10;87.10;;;;;;9175223;19;20023;-69
2023/11/29 15:54:16;;;;;;;5.07;3.00;;;4.00;87.10;;;;;;9174384;19;20018;-69
2023/11/29 15:57:23;;;;;;;4.40;2.80;;;4.00;87.20;;;;;;9176522;19;20376;-69
2023/11/29 16:00:29;;;;;;;5.68;2.63;;;3.90;87.10;;;;;;9174774;19;21012;-69
2023/11/29 16:03:39;;;;;;;4.63;2.92;;;3.90;87.10;;;;;;9175663;19;20479;-72
2023/11/29 16:06:44;;;;;;;4.72;3.80;;;3.90;87.10;;;;;;9176395;19;20364;-69
2023/11/29 16:09:52;;;;;;;6.55;3.45;;;3.90;87.20;;;;;;9175193;19;20015;-71
2023/11/29 16:12:57;;;;;;;5.70;3.47;;;3.90;87.20;;;;;;9174742;19;20019;-70
2023/11/29 16:16:06;;;;;;;6.68;3.78;;;3.80;87.20;;;;;;9173498;19;20018;-69
2023/11/29 16:19:14;;;;;;;6.25;3.75;;;3.80;87.10;;;;;;9176021;19;20038;-68
2023/11/29 16:22:22;;;;;;;7.95;3.70;;;3.80;87.20;;;;;;9173431;19;20495;-69
2023/11/29 16:25:27;;;;;;;6.93;3.33;;;3.80;87.20;;;;;;9171345;19;20025;-72